createdAt,value
2024-05-09T00:03:11.015Z,7.43
2024-05-09T00:08:14.367Z,8.93
2024-05-09T00:13:16.622Z,8.23
2024-05-09T00:18:18.912Z,7.53
2024-05-09T00:23:21.230Z,11.40
2024-05-09T00:28:23.420Z,9.48
2024-05-09T00:33:25.840Z,8.32
2024-05-09T00:38:28.407Z,7.50
2024-05-09T00:43:32.614Z,7.32
2024-05-09T00:48:35.522Z,6.40
2024-05-09T00:53:38.033Z,8.15
2024-05-09T00:58:40.282Z,8.43
2024-05-09T01:03:42.632Z,8.52
2024-05-09T01:08:45.004Z,7.72
2024-05-09T01:13:47.178Z,8.43
2024-05-09T01:18:49.430Z,8.70
2024-05-09T01:23:51.671Z,10.93
2024-05-09T01:28:53.916Z,8.02
2024-05-09T01:33:56.427Z,10.07
2024-05-09T01:38:58.865Z,9.48
2024-05-09T01:44:01.108Z,8.45
2024-05-09T01:49:04.543Z,9.18
2024-05-09T01:54:06.855Z,8.80
2024-05-09T01:59:10.497Z,9.43
2024-05-09T02:04:13.011Z,8.43
2024-05-09T02:09:16.203Z,8.27
2024-05-09T02:14:20.181Z,10.70
2024-05-09T02:19:22.583Z,9.93
2024-05-09T02:24:24.928Z,10.23
2024-05-09T02:29:27.209Z,11.43
2024-05-09T02:34:29.460Z,11.48
2024-05-09T02:39:31.641Z,16.08
2024-05-09T02:44:33.845Z,8.95
2024-05-09T02:49:36.255Z,10.50
2024-05-09T02:54:38.534Z,8.68
2024-05-09T02:59:40.688Z,11.30
2024-05-09T03:04:43.474Z,11.25
2024-05-09T03:09:48.636Z,11.00
2024-05-09T03:14:51.159Z,10.32
2024-05-09T03:19:53.365Z,11.00
2024-05-09T03:24:55.525Z,10.30
2024-05-09T03:29:57.686Z,10.60
2024-05-09T03:34:59.842Z,13.57
2024-05-09T03:40:02.924Z,10.30
2024-05-09T03:45:05.256Z,11.85
2024-05-09T03:50:12.214Z,9.57
2024-05-09T03:55:20.153Z,11.30
2024-05-09T04:00:30.943Z,10.57
2024-05-09T04:05:41.398Z,10.33
2024-05-09T04:10:44.767Z,10.90
2024-05-09T04:15:47.024Z,11.55
2024-05-09T04:20:49.325Z,10.18
2024-05-09T04:25:51.534Z,9.68
2024-05-09T04:30:53.708Z,10.27
2024-05-09T04:35:55.874Z,10.10
2024-05-09T04:40:58.176Z,9.60
2024-05-09T04:46:00.392Z,9.35
2024-05-09T04:51:03.358Z,11.77
2024-05-09T04:56:06.810Z,10.45
2024-05-09T05:01:09.029Z,11.00
2024-05-09T05:06:11.245Z,9.48
2024-05-09T05:11:13.708Z,9.80
2024-05-09T05:16:16.703Z,13.63
2024-05-09T05:21:19.174Z,15.02
2024-05-09T05:26:21.467Z,12.85
2024-05-09T05:31:23.686Z,14.52
2024-05-09T05:36:25.936Z,16.60
2024-05-09T05:41:28.136Z,18.90
2024-05-09T05:46:30.340Z,18.02
2024-05-09T05:51:32.486Z,18.25
2024-05-09T05:56:34.735Z,23.02
2024-05-09T06:01:36.979Z,21.90
2024-05-09T06:06:39.190Z,22.63
2024-05-09T06:11:42.531Z,20.30
2024-05-09T06:16:44.786Z,24.15
2024-05-09T06:21:47.014Z,24.10
2024-05-09T06:26:50.173Z,20.50
2024-05-09T06:31:52.499Z,20.58
2024-05-09T06:36:54.666Z,24.10
2024-05-09T06:41:56.853Z,25.13
2024-05-09T06:47:00.081Z,22.85
2024-05-09T06:52:02.339Z,26.25
2024-05-09T06:57:05.267Z,21.33
2024-05-09T07:02:07.730Z,19.88
2024-05-09T07:07:09.940Z,19.58
2024-05-09T07:12:12.314Z,21.88
2024-05-09T07:17:14.713Z,17.08
2024-05-09T07:22:17.121Z,16.85
2024-05-09T07:27:19.281Z,17.52
2024-05-09T07:32:21.686Z,16.70
2024-05-09T07:37:23.959Z,19.27
2024-05-09T07:42:26.113Z,15.32
2024-05-09T07:48:57.184Z,13.10
2024-05-09T07:53:35.353Z,14.73
2024-05-09T07:58:13.174Z,16.98
2024-05-09T08:03:15.384Z,14.73
2024-05-09T08:08:17.674Z,13.85
2024-05-09T08:13:19.885Z,13.70
2024-05-09T08:18:22.189Z,14.63
2024-05-09T08:23:24.415Z,14.90
2024-05-09T08:28:26.605Z,13.32
2024-05-09T08:33:28.932Z,13.80
2024-05-09T08:38:31.249Z,15.75
2024-05-09T08:43:33.435Z,12.90
2024-05-09T08:48:39.413Z,15.50
2024-05-09T08:53:41.673Z,14.43
2024-05-09T08:58:45.300Z,16.08
2024-05-09T09:03:49.094Z,19.58
2024-05-09T09:08:51.838Z,15.63
2024-05-09T09:13:53.988Z,15.80
2024-05-09T09:18:57.738Z,15.65
2024-05-09T09:24:00.138Z,12.55
2024-05-09T09:29:02.790Z,13.43
2024-05-09T09:34:09.720Z,17.33
2024-05-09T09:39:16.331Z,12.75
2024-05-09T09:44:20.088Z,11.37
2024-05-09T09:49:24.390Z,14.10
2024-05-09T09:54:29.101Z,16.50
2024-05-09T09:59:35.967Z,11.88
2024-05-09T10:04:38.198Z,13.98
2024-05-09T10:09:40.526Z,10.15
2024-05-09T10:14:49.783Z,11.73
2024-05-09T10:19:52.162Z,10.65
2024-05-09T10:24:55.168Z,11.20
2024-05-09T10:29:59.179Z,9.18
2024-05-09T10:35:05.719Z,10.52
2024-05-09T10:40:14.234Z,9.70
2024-05-09T10:45:22.055Z,9.88
2024-05-09T10:50:28.761Z,11.10
2024-05-09T10:55:34.160Z,10.73
2024-05-09T11:00:37.676Z,8.85
2024-05-09T11:05:43.118Z,15.00
2024-05-09T11:10:46.147Z,15.30
2024-05-09T11:15:48.431Z,15.68
2024-05-09T11:20:53.732Z,16.45
2024-05-09T11:25:57.743Z,17.33
2024-05-09T11:31:10.755Z,16.15
2024-05-09T11:36:13.646Z,18.73
2024-05-09T11:41:19.096Z,19.98
2024-05-09T11:46:21.551Z,17.15
2024-05-09T11:51:23.828Z,17.85
2024-05-09T11:56:26.021Z,18.83
2024-05-09T12:01:28.422Z,17.25
2024-05-09T12:06:30.869Z,20.23
2024-05-09T12:11:33.193Z,19.58
2024-05-09T12:16:35.744Z,19.85
2024-05-09T12:21:37.996Z,20.55
2024-05-09T12:26:40.205Z,21.48
2024-05-09T12:31:42.381Z,20.30
2024-05-09T12:36:44.548Z,20.63
2024-05-09T12:41:46.691Z,21.58
2024-05-09T12:46:48.995Z,21.00
2024-05-09T12:51:51.182Z,23.08
2024-05-09T12:56:53.427Z,19.80
2024-05-09T13:01:57.224Z,22.05
2024-05-09T13:07:00.245Z,22.45
2024-05-09T13:12:02.380Z,22.30
2024-05-09T13:17:05.258Z,19.70
2024-05-09T13:22:07.466Z,21.38
2024-05-09T13:27:10.078Z,21.33
2024-05-09T13:32:12.264Z,20.73
2024-05-09T13:37:14.492Z,22.65
2024-05-09T13:42:17.538Z,22.02
2024-05-09T13:47:20.327Z,20.90
2024-05-09T13:52:22.551Z,19.80
2024-05-09T13:57:24.743Z,22.92
2024-05-09T14:02:26.962Z,19.73
2024-05-09T14:07:29.206Z,19.75
2024-05-09T14:12:31.372Z,21.35
2024-05-09T14:17:33.751Z,18.90
2024-05-09T14:22:36.976Z,22.98
2024-05-09T14:27:39.542Z,21.35
2024-05-09T14:32:41.890Z,19.83
2024-05-09T14:37:44.130Z,18.92
2024-05-09T14:42:46.386Z,20.55
2024-05-09T14:47:48.716Z,18.23
2024-05-09T14:52:50.939Z,17.17
2024-05-09T14:57:53.213Z,20.42
2024-05-09T15:02:55.662Z,18.23
2024-05-09T15:07:58.743Z,21.45
2024-05-09T15:13:00.996Z,19.50
2024-05-09T15:18:05.407Z,18.05
2024-05-09T15:23:07.874Z,22.70
2024-05-09T15:28:10.211Z,19.90
2024-05-09T15:33:12.529Z,21.40
2024-05-09T15:38:15.948Z,19.38
2024-05-09T15:43:18.228Z,21.55
2024-05-09T15:48:20.518Z,21.75
2024-05-09T15:53:22.775Z,28.33
2024-05-09T15:58:25.154Z,24.33
2024-05-09T16:03:28.328Z,23.42
2024-05-09T16:08:30.615Z,22.10
2024-05-09T16:13:32.873Z,26.00
2024-05-09T16:18:35.252Z,23.60
2024-05-09T16:23:40.046Z,22.08
2024-05-09T16:28:42.392Z,24.35
2024-05-09T16:33:44.795Z,20.40
2024-05-09T16:38:47.033Z,22.20
2024-05-09T16:43:49.192Z,22.90
2024-05-09T16:48:51.521Z,19.60
2024-05-09T16:53:53.786Z,20.35
2024-05-09T16:58:56.087Z,19.90
2024-05-09T17:03:58.456Z,23.73
2024-05-09T17:09:08.385Z,20.80
2024-05-09T17:14:13.910Z,18.52
2024-05-09T17:19:17.120Z,23.58
2024-05-09T17:24:19.454Z,18.90
2024-05-09T17:29:21.710Z,20.42
2024-05-09T17:34:25.008Z,14.85
2024-05-09T17:39:27.318Z,13.25
2024-05-09T17:44:29.482Z,15.60
2024-05-09T17:49:31.845Z,17.15
2024-05-09T17:54:34.250Z,15.27
2024-05-09T17:59:36.474Z,12.13
2024-05-09T18:04:38.741Z,13.43
2024-05-09T18:09:41.048Z,12.10
2024-05-09T18:14:43.710Z,15.20
2024-05-09T18:19:46.015Z,14.00
2024-05-09T18:24:48.281Z,12.45
2024-05-09T18:29:50.849Z,12.18
2024-05-09T18:34:53.168Z,12.27
2024-05-09T18:39:55.418Z,14.27
2024-05-09T18:44:57.638Z,11.35
2024-05-09T18:50:00.575Z,13.80
2024-05-09T18:55:02.918Z,12.32
2024-05-09T19:00:05.867Z,20.55
2024-05-09T19:05:09.316Z,22.85
2024-05-09T19:10:22.042Z,21.55
2024-05-09T19:15:27.797Z,20.45
2024-05-09T19:20:34.463Z,18.65
2024-05-09T19:25:38.254Z,19.85
2024-05-09T19:30:42.381Z,17.05
2024-05-09T19:35:45.259Z,19.60
2024-05-09T19:40:47.646Z,17.80
2024-05-09T19:45:50.010Z,16.35
2024-05-09T19:50:53.334Z,18.10
2024-05-09T19:55:56.286Z,17.30
2024-05-09T20:00:58.526Z,15.00
2024-05-09T20:06:00.724Z,16.38
2024-05-09T20:11:02.882Z,15.75
2024-05-09T20:16:05.652Z,16.33
2024-05-09T20:21:08.001Z,17.00
2024-05-09T20:26:10.660Z,21.88
2024-05-09T20:31:21.258Z,15.13
2024-05-09T20:36:23.558Z,16.38
2024-05-09T20:41:25.705Z,16.58
2024-05-09T20:46:28.312Z,18.85
2024-05-09T20:51:30.640Z,18.83
2024-05-09T20:56:32.778Z,18.05
2024-05-09T21:01:35.028Z,20.17
2024-05-09T21:06:37.327Z,19.60
2024-05-09T21:11:39.612Z,18.33
2024-05-09T21:16:41.945Z,19.00
2024-05-09T21:21:44.240Z,20.90
2024-05-09T21:26:46.454Z,19.25
2024-05-09T21:31:48.631Z,18.10
2024-05-09T21:36:50.854Z,25.45
2024-05-09T21:41:53.651Z,23.20
2024-05-09T21:46:56.237Z,19.77
2024-05-09T21:51:58.459Z,22.52
2024-05-09T21:57:00.686Z,21.02
2024-05-09T22:02:03.340Z,22.80
2024-05-09T22:07:06.574Z,23.35
2024-05-09T22:12:08.786Z,25.60
2024-05-09T22:17:11.114Z,24.00
2024-05-09T22:22:13.408Z,26.35
2024-05-09T22:27:15.686Z,25.63
2024-05-09T22:32:18.140Z,29.65
2024-05-09T22:37:20.461Z,28.25
2024-05-09T22:42:22.627Z,22.35
2024-05-09T22:47:24.974Z,26.40
2024-05-09T22:52:27.194Z,27.55
2024-05-09T22:57:29.534Z,26.85
2024-05-09T23:02:31.806Z,24.77
2024-05-09T23:07:33.988Z,24.02
2024-05-09T23:12:36.190Z,22.85
2024-05-09T23:17:38.478Z,23.52
2024-05-09T23:22:40.714Z,24.23
2024-05-09T23:27:42.946Z,24.13
2024-05-09T23:32:45.309Z,24.00
2024-05-09T23:37:47.556Z,25.10
2024-05-09T23:42:49.797Z,23.65
2024-05-09T23:47:52.230Z,24.65
2024-05-09T23:52:54.508Z,21.08
2024-05-09T23:57:57.102Z,20.52
